Time,TemperatureF,DewpointF,PressureIn,WindDirection,WindDirectionDegrees,WindSpeedMPH,WindSpeedGustMPH,Humidity,HourlyPrecipIn,Conditions,Clouds,dailyrainin,SoftwareType,DateUTC
2013-06-28 00:00:00,63.1,61.4,-100.00,ESE,107,0.0,7.8,93,0.05,,,-99.99,HOBO +U30 +Weather +,2013-06-28 04:00:00,
2013-06-28 00:15:00,63.0,61.2,-100.00,ESE,102,0.0,0.0,93,0.00,,,-99.99,HOBO +U30 +Weather +,2013-06-28 04:15:00,
2013-06-28 00:30:00,62.9,61.2,-100.00,ESE,110,0.0,0.0,93,0.05,,,-99.99,HOBO +U30 +Weather +,2013-06-28 04:30:00,
2013-06-28 00:45:00,62.7,61.0,-100.00,East,86,0.4,7.8,93,0.00,,,-99.99,HOBO +U30 +Weather +,2013-06-28 04:45:00,
2013-06-28 01:00:00,62.6,60.9,-100.00,East,98,0.0,1.3,94,0.00,,,-99.99,HOBO +U30 +Weather +,2013-06-28 05:00:00,
2013-06-28 01:15:00,62.4,60.7,-100.00,East,98,0.4,10.1,94,0.13,,,-99.99,HOBO +U30 +Weather +,2013-06-28 05:15:00,
2013-06-28 01:30:00,62.3,60.6,-100.00,East,91,0.0,8.7,94,0.20,,,-99.99,HOBO +U30 +Weather +,2013-06-28 05:30:00,
2013-06-28 01:45:00,62.3,60.7,-100.00,ESE,104,0.9,10.1,94,0.20,,,-99.99,HOBO +U30 +Weather +,2013-06-28 05:45:00,
2013-06-28 02:00:00,62.2,60.6,-100.00,ESE,115,0.0,7.2,94,0.44,,,-99.99,HOBO +U30 +Weather +,2013-06-28 06:00:00,
2013-06-28 02:15:00,62.1,60.4,-100.00,East,100,0.9,11.6,94,0.72,,,-99.99,HOBO +U30 +Weather +,2013-06-28 06:15:00,
2013-06-28 02:30:00,62.2,60.5,-100.00,ESE,118,0.4,8.3,94,0.24,,,-99.99,HOBO +U30 +Weather +,2013-06-28 06:30:00,
2013-06-28 02:45:00,62.2,60.5,-100.00,East,100,0.9,15.9,94,0.00,,,-99.99,HOBO +U30 +Weather +,2013-06-28 06:45:00,
2013-06-28 03:00:00,61.8,60.2,-100.00,East,101,2.0,14.5,94,0.00,,,-99.99,HOBO +U30 +Weather +,2013-06-28 07:00:00,
2013-06-28 03:24:00,61.4,59.8,-100.00,East,97,0.9,8.7,94,0.05,,,-99.99,HOBO +U30 +Weather +,2013-06-28 07:24:00,
2013-06-28 03:30:00,60.5,58.9,-100.00,East,86,0.9,11.2,94,0.00,,,-99.99,HOBO +U30 +Weather +,2013-06-28 07:30:00,
2013-06-28 03:45:00,60.1,58.5,-100.00,East,84,0.0,7.2,94,0.05,,,-99.99,HOBO +U30 +Weather +,2013-06-28 07:45:00,
2013-06-28 04:00:00,59.7,58.2,-100.00,East,86,0.0,0.0,94,0.08,,,-99.99,HOBO +U30 +Weather +,2013-06-28 08:00:00,
2013-06-28 04:15:00,59.7,58.2,-100.00,ESE,102,0.4,9.6,94,0.00,,,-99.99,HOBO +U30 +Weather +,2013-06-28 08:15:00,
2013-06-28 04:30:00,59.6,58.1,-100.00,ESE,104,0.0,7.8,94,0.00,,,-99.99,HOBO +U30 +Weather +,2013-06-28 08:30:00,
2013-06-28 04:45:00,59.2,57.8,-100.00,East,101,0.0,5.4,94,0.05,,,-99.99,HOBO +U30 +Weather +,2013-06-28 08:45:00,
2013-06-28 05:00:00,59.1,57.6,-100.00,East,100,0.0,4.5,94,0.00,,,-99.99,HOBO +U30 +Weather +,2013-06-28 09:00:00,
2013-06-28 05:24:00,59.2,57.8,-100.00,East,80,0.0,5.8,94,0.00,,,-99.99,HOBO +U30 +Weather +,2013-06-28 09:24:00,
2013-06-28 05:30:00,59.3,57.9,-100.00,East,83,0.0,0.0,94,0.00,,,-99.99,HOBO +U30 +Weather +,2013-06-28 09:30:00,
2013-06-28 05:45:00,59.4,57.9,-100.00,East,80,0.0,0.0,94,0.00,,,-99.99,HOBO +U30 +Weather +,2013-06-28 09:45:00,
2013-06-28 06:00:00,59.5,58.1,-100.00,East,79,0.0,0.0,94,0.13,,,-99.99,HOBO +U30 +Weather +,2013-06-28 10:00:00,
2013-06-28 06:15:00,59.6,58.2,-100.00,NE,34,0.0,0.0,94,0.05,,,-99.99,HOBO +U30 +Weather +,2013-06-28 10:15:00,
2013-06-28 06:30:00,59.9,58.5,-100.00,ENE,76,0.0,2.5,95,0.05,,,-99.99,HOBO +U30 +Weather +,2013-06-28 10:30:00,
2013-06-28 06:45:00,60.0,58.5,-100.00,East,84,0.0,0.0,95,0.00,,,-99.99,HOBO +U30 +Weather +,2013-06-28 10:45:00,
2013-06-28 07:00:00,60.2,58.8,-100.00,ENE,77,0.0,0.4,95,0.00,,,-99.99,HOBO +U30 +Weather +,2013-06-28 11:00:00,
2013-06-28 07:15:00,60.3,58.9,-100.00,ENE,73,0.0,0.0,95,0.00,,,-99.99,HOBO +U30 +Weather +,2013-06-28 11:15:00,
2013-06-28 07:33:00,60.8,59.5,-100.00,ESE,102,0.0,0.0,95,0.00,,,-99.99,HOBO +U30 +Weather +,2013-06-28 11:33:00,
2013-06-28 07:45:00,61.0,59.6,-100.00,East,87,0.0,0.0,94,0.00,,,-99.99,HOBO +U30 +Weather +,2013-06-28 11:45:00,
2013-06-28 08:00:00,61.3,59.9,-100.00,NE,49,0.0,0.0,95,0.00,,,-99.99,HOBO +U30 +Weather +,2013-06-28 12:00:00,
2013-06-28 08:15:00,61.5,60.0,-100.00,ENE,60,0.0,0.0,94,0.00,,,-99.99,HOBO +U30 +Weather +,2013-06-28 12:15:00,
2013-06-28 08:34:00,61.6,60.2,-100.00,East,83,0.0,0.0,95,0.05,,,-99.99,HOBO +U30 +Weather +,2013-06-28 12:34:00,
2013-06-28 08:45:00,61.8,60.4,-100.00,East,86,0.0,0.0,95,0.00,,,-99.99,HOBO +U30 +Weather +,2013-06-28 12:45:00,
2013-06-28 09:00:00,62.7,61.4,-100.00,East,79,0.0,0.0,95,0.00,,,-99.99,HOBO +U30 +Weather +,2013-06-28 13:00:00,
2013-06-28 09:15:00,62.6,61.1,-100.00,East,79,0.0,0.0,94,0.00,,,-99.99,HOBO +U30 +Weather +,2013-06-28 13:15:00,
2013-06-28 09:33:00,62.9,61.3,-100.00,NNE,29,0.0,0.0,94,0.00,,,-99.99,HOBO +U30 +Weather +,2013-06-28 13:33:00,
2013-06-28 09:45:00,64.4,63.0,-100.00,NNE,17,0.0,0.0,95,0.00,,,-99.99,HOBO +U30 +Weather +,2013-06-28 13:45:00,
2013-06-28 10:00:00,65.8,64.4,-100.00,ESE,108,0.0,0.0,95,0.00,,,-99.99,HOBO +U30 +Weather +,2013-06-28 14:00:00,
2013-06-28 10:15:00,68.4,66.4,-100.00,SE,125,0.0,0.0,93,0.00,,,-99.99,HOBO +U30 +Weather +,2013-06-28 14:15:00,
2013-06-28 10:33:00,70.2,66.8,-100.00,SE,145,0.0,0.0,89,0.00,,,-99.99,HOBO +U30 +Weather +,2013-06-28 14:33:00,
2013-06-28 10:45:00,71.3,66.2,-100.00,SSE,163,0.0,0.0,83,0.00,,,-99.99,HOBO +U30 +Weather +,2013-06-28 14:45:00,
2013-06-28 11:00:00,73.7,68.9,-100.00,South,177,0.0,0.0,85,0.00,,,-99.99,HOBO +U30 +Weather +,2013-06-28 15:00:00,
2013-06-28 11:15:00,73.7,68.9,-100.00,SE,142,0.0,0.0,85,0.00,,,-99.99,HOBO +U30 +Weather +,2013-06-28 15:15:00,
2013-06-28 11:30:00,77.9,72.3,-100.00,SSE,150,0.0,0.0,82,0.00,,,-99.99,HOBO +U30 +Weather +,2013-06-28 15:30:00,
2013-06-28 11:45:00,74.8,69.0,-100.00,South,177,2.5,10.3,82,0.00,,,-99.99,HOBO +U30 +Weather +,2013-06-28 15:45:00,
2013-06-28 12:00:00,78.3,71.1,-100.00,South,183,5.4,14.1,78,0.00,,,-99.99,HOBO +U30 +Weather +,2013-06-28 16:00:00,
2013-06-28 12:15:00,81.4,75.6,-100.00,South,177,4.9,10.7,82,0.00,,,-99.99,HOBO +U30 +Weather +,2013-06-28 16:15:00,
2013-06-28 12:34:00,77.6,71.8,-100.00,SSW,192,7.8,16.6,82,0.00,,,-99.99,HOBO +U30 +Weather +,2013-06-28 16:34:00,
2013-06-28 12:45:00,78.6,72.6,-100.00,South,188,7.2,14.1,81,0.00,,,-99.99,HOBO +U30 +Weather +,2013-06-28 16:45:00,
2013-06-28 13:00:00,81.6,75.5,-100.00,South,185,5.8,13.6,81,0.00,,,-99.99,HOBO +U30 +Weather +,2013-06-28 17:00:00,
2013-06-28 13:15:00,80.9,74.8,-100.00,South,187,7.8,19.5,81,0.00,,,-99.99,HOBO +U30 +Weather +,2013-06-28 17:15:00,
2013-06-28 13:34:00,77.9,72.2,-100.00,South,191,8.7,17.0,82,0.00,,,-99.99,HOBO +U30 +Weather +,2013-06-28 17:34:00,
2013-06-28 13:45:00,79.2,73.0,-100.00,SSW,208,7.4,16.1,81,0.00,,,-99.99,HOBO +U30 +Weather +,2013-06-28 17:45:00,
2013-06-28 14:00:00,78.7,72.8,-100.00,SSW,204,8.7,15.0,81,0.00,,,-99.99,HOBO +U30 +Weather +,2013-06-28 18:00:00,
2013-06-28 14:15:00,78.6,72.2,-100.00,SSW,206,7.8,15.4,80,0.00,,,-99.99,HOBO +U30 +Weather +,2013-06-28 18:15:00,
2013-06-28 14:34:00,80.6,74.1,-100.00,SSW,198,7.4,16.1,80,0.00,,,-99.99,HOBO +U30 +Weather +,2013-06-28 18:34:00,
2013-06-28 14:45:00,77.4,71.4,-100.00,SSW,198,6.7,14.5,81,0.00,,,-99.99,HOBO +U30 +Weather +,2013-06-28 18:45:00,
2013-06-28 15:00:00,76.3,70.5,-100.00,SSW,212,5.8,12.5,82,0.00,,,-99.99,HOBO +U30 +Weather +,2013-06-28 19:00:00,
2013-06-28 15:15:00,76.2,70.5,-100.00,SW,236,4.9,13.6,82,0.00,,,-99.99,HOBO +U30 +Weather +,2013-06-28 19:15:00,
2013-06-28 15:34:00,73.8,67.7,-100.00,WSW,241,5.4,14.1,81,0.00,,,-99.99,HOBO +U30 +Weather +,2013-06-28 19:34:00,
2013-06-28 15:45:00,80.1,73.6,-100.00,WSW,250,5.4,15.0,80,0.00,,,-99.99,HOBO +U30 +Weather +,2013-06-28 19:45:00,
2013-06-28 16:00:00,76.5,70.8,-100.00,SW,227,6.7,14.5,82,0.00,,,-99.99,HOBO +U30 +Weather +,2013-06-28 20:00:00,
2013-06-28 16:15:00,79.7,72.8,-100.00,SSW,206,6.3,12.5,79,0.00,,,-99.99,HOBO +U30 +Weather +,2013-06-28 20:15:00,
2013-06-28 16:34:00,80.5,72.5,-100.00,SSW,202,7.4,17.4,76,0.00,,,-99.99,HOBO +U30 +Weather +,2013-06-28 20:34:00,
2013-06-28 16:45:00,80.0,73.1,-100.00,SW,216,7.2,14.1,79,0.00,,,-99.99,HOBO +U30 +Weather +,2013-06-28 20:45:00,
2013-06-28 17:00:00,78.9,72.5,-100.00,SSW,198,7.8,15.0,80,0.00,,,-99.99,HOBO +U30 +Weather +,2013-06-28 21:00:00,
2013-06-28 17:15:00,75.6,69.9,-100.00,SSW,205,6.3,12.5,82,0.00,,,-99.99,HOBO +U30 +Weather +,2013-06-28 21:15:00,
2013-06-28 17:34:00,77.7,71.7,-100.00,SSW,199,5.8,11.2,81,0.00,,,-99.99,HOBO +U30 +Weather +,2013-06-28 21:34:00,
2013-06-28 17:45:00,78.3,72.3,-100.00,SSW,198,5.8,11.2,81,0.00,,,-99.99,HOBO +U30 +Weather +,2013-06-28 21:45:00,
2013-06-28 18:00:00,78.1,72.1,-100.00,SSW,198,7.2,13.6,81,0.00,,,-99.99,HOBO +U30 +Weather +,2013-06-28 22:00:00,
2013-06-28 18:15:00,77.4,71.5,-100.00,SSW,201,7.2,13.6,82,0.00,,,-99.99,HOBO +U30 +Weather +,2013-06-28 22:15:00,
2013-06-28 18:34:00,75.5,69.7,-100.00,SW,216,5.8,12.1,82,0.00,,,-99.99,HOBO +U30 +Weather +,2013-06-28 22:34:00,
2013-06-28 18:45:00,75.2,69.3,-100.00,SW,216,3.8,7.8,81,0.00,,,-99.99,HOBO +U30 +Weather +,2013-06-28 22:45:00,
2013-06-28 19:00:00,74.2,68.3,-100.00,SW,215,3.8,8.3,81,0.00,,,-99.99,HOBO +U30 +Weather +,2013-06-28 23:00:00,
2013-06-28 19:15:00,73.9,67.9,-100.00,SSW,211,4.3,10.3,81,0.00,,,-99.99,HOBO +U30 +Weather +,2013-06-28 23:15:00,
2013-06-28 19:35:00,73.8,67.7,-100.00,SSW,205,4.9,11.2,81,0.00,,,-99.99,HOBO +U30 +Weather +,2013-06-28 23:35:00,
2013-06-28 19:45:00,73.7,67.6,-100.00,SW,219,4.9,11.6,81,0.00,,,-99.99,HOBO +U30 +Weather +,2013-06-28 23:45:00,
2013-06-28 20:00:00,73.1,66.8,-100.00,SSW,209,3.4,8.3,80,0.00,,,-99.99,HOBO +U30 +Weather +,2013-06-29 00:00:00,
2013-06-28 20:15:00,72.9,66.6,-100.00,SW,227,2.9,8.3,80,0.00,,,-99.99,HOBO +U30 +Weather +,2013-06-29 00:15:00,
2013-06-28 20:35:00,72.3,65.8,-100.00,SSW,201,2.9,6.3,80,0.00,,,-99.99,HOBO +U30 +Weather +,2013-06-29 00:35:00,
2013-06-28 20:45:00,71.4,65.0,-100.00,SSW,194,2.9,6.7,80,0.00,,,-99.99,HOBO +U30 +Weather +,2013-06-29 00:45:00,
2013-06-28 21:00:00,70.5,64.3,-100.00,South,175,1.3,4.3,80,0.00,,,-99.99,HOBO +U30 +Weather +,2013-06-29 01:00:00,
2013-06-28 21:15:00,70.5,64.4,-100.00,SSE,164,1.3,4.5,81,0.00,,,-99.99,HOBO +U30 +Weather +,2013-06-29 01:15:00,
2013-06-28 21:35:00,70.9,64.6,-100.00,South,181,2.5,6.7,80,0.00,,,-99.99,HOBO +U30 +Weather +,2013-06-29 01:35:00,
2013-06-28 21:45:00,70.5,64.4,-100.00,South,191,2.9,7.8,81,0.00,,,-99.99,HOBO +U30 +Weather +,2013-06-29 01:45:00,
2013-06-28 22:00:00,70.1,64.3,-100.00,South,174,2.5,7.4,81,0.00,,,-99.99,HOBO +U30 +Weather +,2013-06-29 02:00:00,
2013-06-28 22:15:00,70.1,64.2,-100.00,SSW,194,2.9,8.7,81,0.00,,,-99.99,HOBO +U30 +Weather +,2013-06-29 02:15:00,
2013-06-28 22:34:00,69.7,64.1,-100.00,SSW,197,3.4,7.2,82,0.00,,,-99.99,HOBO +U30 +Weather +,2013-06-29 02:34:00,
2013-06-28 22:45:00,69.4,64.4,-100.00,South,177,2.0,6.7,84,0.00,,,-99.99,HOBO +U30 +Weather +,2013-06-29 02:45:00,
2013-06-28 23:00:00,69.4,63.9,-100.00,SSE,167,2.5,7.8,82,0.00,,,-99.99,HOBO +U30 +Weather +,2013-06-29 03:00:00,
2013-06-28 23:15:00,69.0,63.4,-100.00,SSE,160,2.0,7.4,82,0.00,,,-99.99,HOBO +U30 +Weather +,2013-06-29 03:15:00,
2013-06-28 23:34:00,68.3,63.4,-100.00,South,178,2.5,6.7,84,0.00,,,-99.99,HOBO +U30 +Weather +,2013-06-29 03:34:00,
2013-06-28 23:45:00,68.9,63.8,-100.00,South,178,2.5,7.2,83,0.00,,,-99.99,HOBO +U30 +Weather +,2013-06-29 03:45:00,